createdAt,value
2022-12-01T00:01:21.088Z,26.10
2022-12-01T00:03:47.965Z,27.27
2022-12-01T00:06:19.977Z,27.83
2022-12-01T00:09:07.325Z,26.75
2022-12-01T00:11:35.604Z,27.17
2022-12-01T00:14:02.786Z,26.52
2022-12-01T00:16:30.120Z,24.80
2022-12-01T00:18:57.139Z,26.25
2022-12-01T00:21:25.775Z,27.45
2022-12-01T00:23:55.034Z,27.20
2022-12-01T00:26:23.087Z,27.83
2022-12-01T00:28:54.833Z,27.65
2022-12-01T00:31:21.983Z,27.20
2022-12-01T00:33:49.667Z,27.45
2022-12-01T00:36:16.281Z,27.48
2022-12-01T00:38:43.160Z,29.20
2022-12-01T00:41:09.829Z,27.48
2022-12-01T00:43:36.559Z,28.52
2022-12-01T00:46:03.668Z,29.88
2022-12-01T00:48:32.383Z,29.10
2022-12-01T00:51:00.019Z,27.92
2022-12-01T00:53:26.659Z,28.90
2022-12-01T00:55:56.160Z,30.30
2022-12-01T00:58:23.716Z,30.63
2022-12-01T01:00:58.436Z,31.02
2022-12-01T01:03:26.108Z,29.90
2022-12-01T01:05:52.732Z,31.20
2022-12-01T01:08:19.404Z,30.75
2022-12-01T01:10:47.779Z,32.25
2022-12-01T01:13:15.510Z,27.77
2022-12-01T01:15:42.370Z,33.55
2022-12-01T01:18:11.466Z,31.52
2022-12-01T01:20:38.194Z,29.58
2022-12-01T01:23:04.917Z,30.98
2022-12-01T01:25:32.697Z,30.63
2022-12-01T01:27:59.322Z,29.02
2022-12-01T01:30:26.031Z,28.67
2022-12-01T01:32:52.662Z,30.33
2022-12-01T01:35:19.241Z,30.38
2022-12-01T01:37:45.851Z,32.10
2022-12-01T01:40:12.562Z,29.85
2022-12-01T01:42:39.149Z,29.33
2022-12-01T01:45:29.484Z,28.73
2022-12-01T01:47:58.464Z,28.83
2022-12-01T01:50:28.243Z,27.33
2022-12-01T01:53:02.677Z,28.15
2022-12-01T01:55:33.102Z,27.35
2022-12-01T01:58:00.260Z,27.95
2022-12-01T02:00:27.092Z,27.40
2022-12-01T02:02:54.303Z,25.45
2022-12-01T02:05:25.625Z,27.83
2022-12-01T02:07:55.298Z,28.67
2022-12-01T02:10:33.503Z,26.75
2022-12-01T02:13:06.070Z,27.17
2022-12-01T02:18:22.643Z,29.48
2022-12-01T02:21:27.779Z,27.83
2022-12-01T02:24:23.272Z,29.38
2022-12-01T02:27:02.191Z,27.17
2022-12-01T02:29:48.294Z,26.60
2022-12-01T02:32:30.618Z,27.60
2022-12-01T02:35:20.600Z,28.13
2022-12-01T02:37:51.990Z,27.13
2022-12-01T02:40:25.527Z,27.05
2022-12-01T02:43:32.815Z,26.70
2022-12-01T02:46:10.653Z,27.75
2022-12-01T02:48:41.174Z,24.77
2022-12-01T02:51:13.080Z,24.90
2022-12-01T02:53:39.735Z,25.92
2022-12-01T02:56:10.381Z,25.13
2022-12-01T02:58:37.008Z,25.50
2022-12-01T03:01:10.606Z,23.73
2022-12-01T03:03:59.438Z,25.55
2022-12-01T03:06:37.176Z,27.48
2022-12-01T03:09:41.520Z,25.23
2022-12-01T03:12:15.612Z,26.85
2022-12-01T03:14:58.610Z,28.15
2022-12-01T03:17:30.670Z,24.88
2022-12-01T03:20:12.419Z,26.55
2022-12-01T03:22:48.845Z,25.05
2022-12-01T03:25:17.582Z,25.50
2022-12-01T03:28:06.655Z,27.77
2022-12-01T03:30:39.069Z,25.65
2022-12-01T03:33:10.761Z,26.30
2022-12-01T03:36:03.433Z,24.95
2022-12-01T03:38:31.901Z,26.45
2022-12-01T03:41:02.857Z,24.90
2022-12-01T03:43:34.915Z,24.20
2022-12-01T03:46:23.039Z,24.02
2022-12-01T03:48:52.794Z,25.45
2022-12-01T03:51:30.031Z,26.55
2022-12-01T03:54:07.762Z,24.08
2022-12-01T03:56:46.626Z,25.35
2022-12-01T03:59:15.175Z,23.40
2022-12-01T04:01:41.869Z,24.98
2022-12-01T04:04:13.231Z,25.67
2022-12-01T04:06:44.871Z,23.98
2022-12-01T04:09:11.505Z,22.97
2022-12-01T04:12:16.520Z,24.05
2022-12-01T04:14:43.138Z,22.13
2022-12-01T04:17:09.765Z,21.15
2022-12-01T04:19:37.427Z,23.20
2022-12-01T04:22:04.005Z,24.00
2022-12-01T04:24:30.872Z,22.25
2022-12-01T04:26:57.396Z,19.60
2022-12-01T04:29:23.943Z,23.58
2022-12-01T04:31:51.605Z,19.50
2022-12-01T04:34:18.223Z,21.35
2022-12-01T04:36:45.054Z,21.05
2022-12-01T04:39:11.640Z,23.15
2022-12-01T04:41:38.163Z,23.58
2022-12-01T04:44:04.886Z,21.80
2022-12-01T04:46:31.592Z,23.05
2022-12-01T04:48:58.182Z,22.05
2022-12-01T04:51:24.762Z,24.90
2022-12-01T04:53:51.562Z,23.85
2022-12-01T04:56:18.354Z,24.38
2022-12-01T04:58:45.679Z,25.88
2022-12-01T05:01:14.451Z,26.13
2022-12-01T05:03:43.768Z,23.48
2022-12-01T05:06:16.763Z,26.05
2022-12-01T05:08:44.556Z,27.65
2022-12-01T05:11:12.431Z,25.88
2022-12-01T05:13:40.609Z,26.50
2022-12-01T05:16:12.262Z,24.67
2022-12-01T05:18:39.412Z,29.00
2022-12-01T05:21:08.792Z,25.38
2022-12-01T05:23:36.968Z,27.42
2022-12-01T05:26:06.587Z,27.20
2022-12-01T05:28:33.374Z,25.77
2022-12-01T05:31:00.197Z,26.92
2022-12-01T05:33:27.424Z,26.63
2022-12-01T05:35:54.722Z,26.08
2022-12-01T05:38:21.923Z,28.90
2022-12-01T05:40:53.352Z,27.05
2022-12-01T05:43:26.886Z,25.50
2022-12-01T05:45:56.113Z,25.60
2022-12-01T05:48:22.750Z,26.50
2022-12-01T05:50:49.341Z,29.30
2022-12-01T05:53:15.946Z,24.75
2022-12-01T05:55:43.616Z,29.33
2022-12-01T05:58:10.782Z,27.52
2022-12-01T06:00:45.063Z,26.77
2022-12-01T06:03:12.823Z,29.00
2022-12-01T06:05:39.780Z,29.08
2022-12-01T06:08:06.465Z,28.65
2022-12-01T06:10:33.184Z,29.27
2022-12-01T06:12:59.814Z,29.23
2022-12-01T06:15:26.593Z,28.90
2022-12-01T06:17:53.242Z,30.00
2022-12-01T06:20:19.937Z,27.98
2022-12-01T06:22:46.460Z,30.70
2022-12-01T06:25:14.062Z,27.95
2022-12-01T06:27:40.711Z,30.83
2022-12-01T06:30:08.003Z,28.88
2022-12-01T06:32:34.686Z,29.60
2022-12-01T06:35:01.441Z,30.48
2022-12-01T06:37:28.483Z,30.25
2022-12-01T06:39:55.106Z,30.23
2022-12-01T06:42:21.833Z,27.38
2022-12-01T06:44:48.415Z,29.25
2022-12-01T06:47:15.888Z,29.60
2022-12-01T06:49:42.651Z,30.42
2022-12-01T06:52:11.368Z,29.77
2022-12-01T06:54:37.916Z,30.70
2022-12-01T06:57:04.578Z,30.35
2022-12-01T06:59:31.382Z,30.02
2022-12-01T07:01:58.470Z,28.10
2022-12-01T07:04:25.041Z,29.88
2022-12-01T07:06:51.606Z,28.63
2022-12-01T07:09:19.236Z,28.67
2022-12-01T07:11:46.048Z,29.05
2022-12-01T07:14:23.816Z,30.25
2022-12-01T07:16:50.800Z,29.90
2022-12-01T07:19:17.599Z,29.27
2022-12-01T07:21:44.376Z,29.77
2022-12-01T07:24:12.627Z,32.50
2022-12-01T07:26:41.062Z,30.20
2022-12-01T07:29:09.241Z,30.60
2022-12-01T07:31:36.750Z,30.20
2022-12-01T07:34:04.309Z,29.75
2022-12-01T07:36:32.057Z,30.27
2022-12-01T07:38:58.711Z,29.48
2022-12-01T07:41:25.439Z,32.17
2022-12-01T07:43:52.151Z,31.83
2022-12-01T07:46:23.561Z,33.10
2022-12-01T07:48:51.660Z,21.75
2022-12-01T07:51:18.911Z,30.20
2022-12-01T07:53:46.981Z,30.33
2022-12-01T07:56:14.226Z,28.33
2022-12-01T07:58:41.258Z,30.80
2022-12-01T08:01:19.638Z,27.50
2022-12-01T08:03:48.646Z,30.90
2022-12-01T08:06:16.879Z,31.02
2022-12-01T08:08:44.977Z,30.85
2022-12-01T08:11:24.482Z,29.52
2022-12-01T08:13:52.382Z,31.35
2022-12-01T08:16:22.305Z,30.33
2022-12-01T08:18:49.741Z,30.63
2022-12-01T08:21:18.874Z,30.90
2022-12-01T08:23:46.967Z,30.17
2022-12-01T08:26:18.977Z,29.92
2022-12-01T08:28:46.995Z,33.28
2022-12-01T08:31:26.007Z,33.35
2022-12-01T08:33:53.314Z,33.50
2022-12-01T08:36:21.196Z,31.88
2022-12-01T08:38:52.002Z,31.63
2022-12-01T08:41:19.871Z,33.15
2022-12-01T08:43:58.066Z,33.25
2022-12-01T08:46:26.402Z,32.30
2022-12-01T08:48:55.065Z,32.78
2022-12-01T08:51:21.964Z,30.30
2022-12-01T08:53:50.169Z,31.95
2022-12-01T08:56:24.040Z,34.60
2022-12-01T08:58:51.721Z,34.10
2022-12-01T09:01:20.335Z,31.63
2022-12-01T09:03:47.378Z,33.80
2022-12-01T09:06:16.704Z,33.55
2022-12-01T09:08:43.832Z,33.85
2022-12-01T09:11:13.435Z,33.08
2022-12-01T09:13:40.649Z,33.38
2022-12-01T09:16:13.399Z,33.33
2022-12-01T09:18:40.199Z,34.08
2022-12-01T09:21:30.302Z,33.45
2022-12-01T09:23:57.295Z,33.30
2022-12-01T09:26:26.570Z,34.28
2022-12-01T09:28:55.378Z,34.97
2022-12-01T09:31:23.546Z,33.50
2022-12-01T09:34:01.906Z,34.72
2022-12-01T09:36:30.042Z,34.35
2022-12-01T09:38:56.780Z,33.72
2022-12-01T09:41:31.166Z,33.25
2022-12-01T09:44:15.155Z,33.40
2022-12-01T09:46:46.217Z,33.22
2022-12-01T09:49:19.528Z,31.08
2022-12-01T09:51:46.133Z,31.17
2022-12-01T09:54:14.090Z,29.58
2022-12-01T09:56:50.335Z,30.40
2022-12-01T09:59:22.504Z,32.85
2022-12-01T10:01:54.928Z,30.63
2022-12-01T10:04:36.059Z,30.45
2022-12-01T10:07:31.977Z,30.02
2022-12-01T10:10:03.675Z,31.48
2022-12-01T10:12:33.365Z,30.37
2022-12-01T10:15:27.468Z,29.35
2022-12-01T10:18:20.176Z,31.60
2022-12-01T10:21:03.597Z,30.65
2022-12-01T10:23:55.870Z,29.58
2022-12-01T10:26:34.649Z,31.73
2022-12-01T10:29:11.858Z,31.73
2022-12-01T10:31:50.527Z,29.75
2022-12-01T10:34:29.665Z,30.58
2022-12-01T10:36:57.929Z,31.25
2022-12-01T10:39:29.940Z,29.98
2022-12-01T10:42:07.056Z,30.40
2022-12-01T10:44:35.098Z,29.33
2022-12-01T10:47:03.130Z,28.88
2022-12-01T10:49:41.047Z,29.50
2022-12-01T10:52:26.497Z,29.50
2022-12-01T10:54:53.025Z,30.17
2022-12-01T10:57:19.833Z,29.63
2022-12-01T10:59:57.247Z,29.40
2022-12-01T11:02:27.623Z,29.75
2022-12-01T11:04:58.214Z,28.70
2022-12-01T11:07:29.675Z,30.63
2022-12-01T11:10:08.151Z,30.33
2022-12-01T11:12:34.804Z,29.73
2022-12-01T11:15:01.924Z,31.45
2022-12-01T11:17:33.997Z,30.50
2022-12-01T11:20:37.026Z,21.38
2022-12-01T11:23:09.710Z,28.02
2022-12-01T11:25:36.863Z,29.40
2022-12-01T11:28:05.012Z,27.33
2022-12-01T11:30:33.614Z,27.77
2022-12-01T11:33:03.199Z,27.75
2022-12-01T11:35:35.136Z,27.35
2022-12-01T11:41:00.506Z,27.08
2022-12-01T11:43:36.160Z,28.15
2022-12-01T11:46:06.641Z,26.92
2022-12-01T11:48:35.308Z,27.23
2022-12-01T11:51:28.754Z,28.17
2022-12-01T11:54:33.980Z,27.35
2022-12-01T11:57:31.710Z,28.98
2022-12-01T11:59:47.500Z,29.20
2022-12-01T12:02:23.869Z,28.45
2022-12-01T12:04:53.335Z,27.13
2022-12-01T12:07:44.381Z,27.33
2022-12-01T12:10:44.724Z,30.05
2022-12-01T12:13:43.509Z,27.30
2022-12-01T12:16:33.470Z,27.55
2022-12-01T12:19:28.945Z,27.85
2022-12-01T12:22:42.350Z,25.70
2022-12-01T12:25:17.694Z,27.13
2022-12-01T12:27:50.708Z,27.30
2022-12-01T12:30:22.285Z,25.92
2022-12-01T12:33:20.366Z,29.02
2022-12-01T12:36:38.869Z,27.10
2022-12-01T12:39:35.055Z,26.58
2022-12-01T12:42:10.813Z,26.50
2022-12-01T12:44:49.561Z,28.13
2022-12-01T12:47:46.139Z,27.65
2022-12-01T12:50:43.695Z,27.15
2022-12-01T12:53:22.779Z,27.20
2022-12-01T12:55:52.702Z,27.55
2022-12-01T12:58:35.333Z,26.77
2022-12-01T13:01:12.344Z,26.90
2022-12-01T13:03:50.983Z,26.65
2022-12-01T13:06:20.425Z,28.17
2022-12-01T13:08:57.256Z,27.40
2022-12-01T13:11:36.803Z,28.05
2022-12-01T13:14:49.870Z,27.38
2022-12-01T13:17:20.936Z,27.63
2022-12-01T13:19:48.404Z,27.80
2022-12-01T13:22:17.946Z,27.15
2022-12-01T13:24:44.707Z,27.85
2022-12-01T13:27:11.222Z,26.73
2022-12-01T13:29:43.825Z,25.23
2022-12-01T13:32:27.189Z,26.55
2022-12-01T13:34:53.961Z,25.92
2022-12-01T13:37:35.698Z,26.58
2022-12-01T13:40:20.273Z,26.15
2022-12-01T13:43:00.274Z,26.55
2022-12-01T13:45:40.004Z,25.60
2022-12-01T13:48:25.966Z,25.42
2022-12-01T13:51:02.190Z,26.98
2022-12-01T13:53:36.516Z,27.10
2022-12-01T13:56:02.940Z,27.25
2022-12-01T13:58:32.724Z,25.70
2022-12-01T14:01:21.477Z,26.45
2022-12-01T14:04:10.760Z,30.27
2022-12-01T14:06:51.438Z,26.67
2022-12-01T14:09:17.896Z,26.70
2022-12-01T14:11:56.997Z,25.75
2022-12-01T14:14:26.995Z,25.52
2022-12-01T14:16:58.424Z,25.98
2022-12-01T14:19:37.107Z,26.85
2022-12-01T14:22:07.760Z,25.90
2022-12-01T14:24:41.475Z,26.70
2022-12-01T14:27:12.233Z,25.80
2022-12-01T14:29:43.008Z,27.48
2022-12-01T14:32:09.452Z,27.30
2022-12-01T14:34:38.208Z,29.90
2022-12-01T14:37:20.575Z,26.48
2022-12-01T14:40:05.510Z,28.85
2022-12-01T14:42:55.399Z,28.90
2022-12-01T14:45:27.689Z,26.05
2022-12-01T14:48:02.287Z,28.20
2022-12-01T14:50:35.017Z,27.60
2022-12-01T14:53:08.893Z,28.27
2022-12-01T14:55:47.268Z,25.80
2022-12-01T14:58:18.358Z,28.88
2022-12-01T15:01:14.317Z,24.73
2022-12-01T15:03:45.070Z,27.23
2022-12-01T15:06:20.670Z,26.13
2022-12-01T15:09:31.461Z,27.83
2022-12-01T15:11:57.465Z,25.90
2022-12-01T15:14:34.180Z,25.25
2022-12-01T15:17:03.307Z,25.58
2022-12-01T15:19:33.289Z,27.10
2022-12-01T15:22:04.867Z,29.35
2022-12-01T15:24:33.869Z,27.10
2022-12-01T15:27:03.809Z,25.88
2022-12-01T15:29:46.779Z,26.40
2022-12-01T15:32:16.738Z,27.65
2022-12-01T15:34:46.493Z,26.60
2022-12-01T15:37:19.219Z,27.92
2022-12-01T15:39:49.048Z,28.60
2022-12-01T15:42:26.040Z,28.70
2022-12-01T15:45:04.328Z,27.17
2022-12-01T15:47:45.967Z,28.33
2022-12-01T15:50:31.246Z,27.08
2022-12-01T15:53:00.423Z,28.48
2022-12-01T15:55:35.642Z,30.40
2022-12-01T15:58:06.966Z,30.52
2022-12-01T16:00:33.738Z,28.38
2022-12-01T16:03:02.136Z,30.77
2022-12-01T16:05:32.528Z,31.90
2022-12-01T16:08:14.279Z,29.70
2022-12-01T16:10:40.922Z,30.25
2022-12-01T16:13:47.453Z,29.25
2022-12-01T16:16:38.094Z,28.40
2022-12-01T16:19:24.356Z,29.45
2022-12-01T16:22:03.153Z,29.25
2022-12-01T16:24:33.087Z,29.55
2022-12-01T16:27:05.795Z,29.00
2022-12-01T16:29:57.803Z,29.27
2022-12-01T16:32:35.970Z,30.20
2022-12-01T16:35:04.234Z,29.63
2022-12-01T16:37:31.337Z,29.45
2022-12-01T16:39:58.546Z,28.25
2022-12-01T16:42:25.082Z,28.38
2022-12-01T16:44:52.351Z,28.00
2022-12-01T16:47:21.962Z,26.20
2022-12-01T16:49:48.721Z,27.17
2022-12-01T16:52:43.146Z,27.65
2022-12-01T16:55:02.309Z,25.95
2022-12-01T16:57:28.806Z,26.83
2022-12-01T16:59:55.316Z,24.63
2022-12-01T17:02:21.882Z,26.98
2022-12-01T17:04:48.728Z,25.92
2022-12-01T17:07:15.440Z,23.73
2022-12-01T17:09:41.927Z,23.98
2022-12-01T17:12:08.441Z,26.58
2022-12-01T17:14:35.820Z,25.98
2022-12-01T17:17:03.634Z,25.80
2022-12-01T17:19:30.134Z,27.33
2022-12-01T17:21:57.011Z,24.20
2022-12-01T17:24:23.842Z,26.38
2022-12-01T17:26:50.372Z,27.25
2022-12-01T17:29:16.885Z,27.67
2022-12-01T17:31:43.398Z,28.35
2022-12-01T17:34:09.912Z,25.08
2022-12-01T17:36:36.624Z,26.75
2022-12-01T17:39:03.230Z,26.02
2022-12-01T17:41:35.652Z,24.30
2022-12-01T17:44:05.797Z,26.17
2022-12-01T17:46:32.399Z,26.50
2022-12-01T17:49:00.585Z,26.77
2022-12-01T17:51:27.098Z,27.52
2022-12-01T17:53:54.195Z,26.90
2022-12-01T17:56:20.843Z,27.67
2022-12-01T17:58:50.411Z,28.35
2022-12-01T18:01:19.679Z,26.35
2022-12-01T18:03:47.398Z,29.50
2022-12-01T18:06:14.854Z,27.92
2022-12-01T18:08:42.631Z,28.65
2022-12-01T18:11:12.114Z,28.23
2022-12-01T18:13:40.834Z,28.27
2022-12-01T18:16:27.950Z,27.83
2022-12-01T18:18:55.104Z,29.40
2022-12-01T18:21:23.553Z,26.33
2022-12-01T18:23:51.775Z,27.83
2022-12-01T18:26:20.465Z,27.30
2022-12-01T18:28:47.348Z,26.98
2022-12-01T18:31:16.167Z,27.38
2022-12-01T18:33:44.536Z,28.00
2022-12-01T18:36:16.908Z,28.42
2022-12-01T18:38:44.406Z,26.70
2022-12-01T18:41:10.962Z,27.98
2022-12-01T18:43:37.485Z,28.00
2022-12-01T18:46:05.763Z,30.25
2022-12-01T18:48:33.383Z,28.38
2022-12-01T18:51:07.602Z,27.58
2022-12-01T18:53:34.798Z,26.27
2022-12-01T18:56:03.424Z,26.13
2022-12-01T18:58:30.883Z,26.05
2022-12-01T19:00:58.421Z,26.35
2022-12-01T19:03:25.641Z,26.45
2022-12-01T19:05:52.307Z,27.33
2022-12-01T19:08:19.248Z,25.02
2022-12-01T19:10:45.838Z,25.95
2022-12-01T19:13:12.379Z,25.33
2022-12-01T19:15:38.935Z,26.10
2022-12-01T19:18:05.546Z,27.35
2022-12-01T19:20:32.158Z,26.77
2022-12-01T19:22:58.926Z,28.70
2022-12-01T19:25:25.472Z,29.13
2022-12-01T19:27:53.194Z,29.05
2022-12-01T19:30:19.884Z,31.13
2022-12-01T19:32:46.552Z,31.05
2022-12-01T19:35:13.092Z,32.10
2022-12-01T19:37:39.586Z,33.25
2022-12-01T19:40:06.936Z,33.70
2022-12-01T19:42:33.505Z,32.97
2022-12-01T19:45:01.120Z,33.05
2022-12-01T19:47:31.920Z,32.33
2022-12-01T19:49:58.603Z,33.55
2022-12-01T19:52:25.124Z,33.08
2022-12-01T19:54:52.405Z,31.73
2022-12-01T19:57:19.139Z,33.10
2022-12-01T19:59:45.695Z,34.17
2022-12-01T20:02:12.457Z,36.53
2022-12-01T20:04:40.030Z,34.22
2022-12-01T20:07:07.368Z,34.30
2022-12-01T20:09:33.921Z,35.47
2022-12-01T20:12:00.439Z,36.45
2022-12-01T20:14:27.037Z,35.60
2022-12-01T20:16:55.683Z,35.13
2022-12-01T20:19:22.596Z,38.28
2022-12-01T20:21:49.119Z,37.22
2022-12-01T20:24:19.852Z,35.95
2022-12-01T20:26:50.767Z,35.42
2022-12-01T20:29:23.419Z,39.88
2022-12-01T20:34:21.427Z,39.13
2022-12-01T20:36:48.531Z,41.25
2022-12-01T20:39:15.926Z,40.53
2022-12-01T20:41:43.837Z,39.17
2022-12-01T20:44:11.127Z,40.22
2022-12-01T20:46:40.900Z,40.90
2022-12-01T20:49:08.011Z,42.22
2022-12-01T20:51:35.337Z,42.20
2022-12-01T20:56:54.233Z,41.53
2022-12-01T20:59:20.743Z,44.20
2022-12-01T21:01:47.391Z,45.40
2022-12-01T21:04:13.954Z,42.67
2022-12-01T21:06:42.986Z,43.63
2022-12-01T21:09:09.544Z,43.03
2022-12-01T21:12:05.354Z,45.22
2022-12-01T21:14:41.344Z,44.28
2022-12-01T21:17:22.506Z,44.88
2022-12-01T21:20:01.411Z,41.55
2022-12-01T21:22:28.023Z,42.53
2022-12-01T21:25:03.549Z,45.60
2022-12-01T21:27:30.068Z,43.47
2022-12-01T21:29:56.871Z,43.03
2022-12-01T21:32:30.732Z,41.58
2022-12-01T21:35:05.728Z,43.25
2022-12-01T21:37:32.229Z,40.95
2022-12-01T21:39:59.523Z,42.05
2022-12-01T21:42:29.895Z,43.85
2022-12-01T21:44:56.882Z,40.85
2022-12-01T21:47:26.258Z,43.42
2022-12-01T21:49:55.619Z,42.50
2022-12-01T21:52:27.216Z,40.33
2022-12-01T21:54:54.598Z,41.33
2022-12-01T21:57:43.139Z,43.65
2022-12-01T22:00:31.599Z,45.42
2022-12-01T22:03:13.386Z,42.40
2022-12-01T22:05:56.169Z,43.17
2022-12-01T22:08:40.358Z,44.88
2022-12-01T22:11:15.858Z,46.67
2022-12-01T22:14:01.188Z,46.53
2022-12-01T22:16:37.974Z,46.28
2022-12-01T22:19:16.777Z,45.95
2022-12-01T22:22:00.324Z,45.42
2022-12-01T22:24:32.889Z,43.90
2022-12-01T22:29:39.141Z,44.15
2022-12-01T22:32:11.903Z,42.85
2022-12-01T22:34:57.591Z,42.92
2022-12-01T22:37:38.074Z,43.70
2022-12-01T22:40:38.617Z,42.65
2022-12-01T22:43:17.346Z,40.40
2022-12-01T22:45:48.113Z,38.95
2022-12-01T22:48:33.071Z,41.53
2022-12-01T22:51:14.759Z,42.92
2022-12-01T22:53:42.262Z,41.55
2022-12-01T22:56:29.389Z,41.10
2022-12-01T22:58:56.331Z,39.63
2022-12-01T23:01:33.595Z,42.65
2022-12-01T23:04:14.196Z,40.63
2022-12-01T23:07:22.896Z,41.40
2022-12-01T23:09:49.523Z,38.53
2022-12-01T23:12:23.500Z,40.47
2022-12-01T23:14:53.376Z,37.60
2022-12-01T23:17:26.748Z,39.95
2022-12-01T23:20:05.606Z,34.75
2022-12-01T23:22:32.087Z,37.72
2022-12-01T23:25:00.481Z,37.42
2022-12-01T23:27:27.011Z,39.42
2022-12-01T23:29:54.085Z,36.42
2022-12-01T23:32:20.663Z,35.05
2022-12-01T23:34:47.402Z,35.78
2022-12-01T23:37:34.223Z,36.10
2022-12-01T23:40:02.396Z,33.72
2022-12-01T23:42:28.971Z,31.98
2022-12-01T23:44:55.544Z,32.13
2022-12-01T23:47:26.607Z,32.10
2022-12-01T23:50:00.566Z,31.33
2022-12-01T23:52:36.261Z,34.78
2022-12-01T23:55:11.492Z,33.03
2022-12-01T23:57:38.111Z,33.10
